createdAt,value
2022-10-22T00:02:22.648Z,38.40
2022-10-22T00:05:10.376Z,38.90
2022-10-22T00:07:56.502Z,34.40
2022-10-22T00:10:43.113Z,39.00
2022-10-22T00:13:29.254Z,38.10
2022-10-22T00:16:15.472Z,38.00
2022-10-22T00:19:02.754Z,35.90
2022-10-22T00:21:49.075Z,37.20
2022-10-22T00:24:37.081Z,35.80
2022-10-22T00:27:23.964Z,32.60
2022-10-22T00:30:11.724Z,34.70
2022-10-22T00:32:58.039Z,31.30
2022-10-22T00:35:44.703Z,36.30
2022-10-22T00:38:31.293Z,36.50
2022-10-22T00:41:18.073Z,33.50
2022-10-22T00:44:06.516Z,37.10
2022-10-22T00:46:53.136Z,32.70
2022-10-22T00:49:39.945Z,30.20
2022-10-22T00:52:29.147Z,38.20
2022-10-22T00:55:16.388Z,38.60
2022-10-22T00:58:03.028Z,39.50
2022-10-22T01:00:49.783Z,36.80
2022-10-22T01:03:36.100Z,38.90
2022-10-22T01:06:33.667Z,35.00
2022-10-22T01:09:45.286Z,31.30
2022-10-22T01:12:56.483Z,32.50
2022-10-22T01:16:06.872Z,33.00
2022-10-22T01:19:40.361Z,29.70
2022-10-22T01:22:38.503Z,33.00
2022-10-22T01:25:46.080Z,33.30
2022-10-22T01:28:58.125Z,34.80
2022-10-22T01:31:57.258Z,35.60
2022-10-22T01:34:51.619Z,40.10
2022-10-22T01:37:49.218Z,38.30
2022-10-22T01:40:36.151Z,32.90
2022-10-22T01:43:25.232Z,35.60
2022-10-22T01:46:12.551Z,34.70
2022-10-22T01:49:01.888Z,39.80
2022-10-22T01:52:15.535Z,36.80
2022-10-22T01:55:10.530Z,37.50
2022-10-22T01:58:19.381Z,34.80
2022-10-22T02:01:27.670Z,35.20
2022-10-22T02:04:18.767Z,37.60
2022-10-22T02:07:10.155Z,34.20
2022-10-22T02:09:59.042Z,37.30
2022-10-22T02:12:51.371Z,35.20
2022-10-22T02:15:39.003Z,36.40
2022-10-22T02:18:29.686Z,36.50
2022-10-22T02:21:16.414Z,37.20
2022-10-22T02:24:03.440Z,36.20
2022-10-22T02:27:17.433Z,39.80
2022-10-22T02:30:10.908Z,36.20
2022-10-22T02:33:11.068Z,35.30
2022-10-22T02:35:59.723Z,31.60
2022-10-22T02:38:47.362Z,33.30
2022-10-22T02:41:34.615Z,34.90
2022-10-22T02:44:22.247Z,36.50
2022-10-22T02:47:08.376Z,33.90
2022-10-22T02:49:55.015Z,33.90
2022-10-22T02:52:42.113Z,33.50
2022-10-22T02:55:28.971Z,35.10
2022-10-22T02:58:15.278Z,35.50
2022-10-22T03:01:01.730Z,29.40
2022-10-22T03:03:48.391Z,35.70
2022-10-22T03:06:34.650Z,33.60
2022-10-22T03:09:24.018Z,33.40
2022-10-22T03:12:11.030Z,31.20
2022-10-22T03:14:57.623Z,34.10
2022-10-22T03:17:43.918Z,29.50
2022-10-22T03:20:30.617Z,37.20
2022-10-22T03:23:19.452Z,39.30
2022-10-22T03:26:06.782Z,34.90
2022-10-22T03:28:54.276Z,32.60
2022-10-22T03:31:40.840Z,38.70
2022-10-22T03:34:27.194Z,33.30
2022-10-22T03:37:13.668Z,35.00
2022-10-22T03:40:00.583Z,37.60
2022-10-22T03:42:47.225Z,36.00
2022-10-22T03:45:33.589Z,32.60
2022-10-22T03:48:19.933Z,31.40
2022-10-22T03:51:05.947Z,34.80
2022-10-22T03:53:52.843Z,35.10
2022-10-22T03:56:39.056Z,38.30
2022-10-22T03:59:25.624Z,34.30
2022-10-22T04:02:13.635Z,34.40
2022-10-22T04:05:00.257Z,35.00
2022-10-22T04:07:46.742Z,34.00
2022-10-22T04:10:33.382Z,35.80
2022-10-22T04:13:19.550Z,36.00
2022-10-22T04:16:11.147Z,37.50
2022-10-22T04:18:57.995Z,36.90
2022-10-22T04:21:44.620Z,35.30
2022-10-22T04:24:31.502Z,35.90
2022-10-22T04:27:17.568Z,35.80
2022-10-22T04:30:06.143Z,37.70
2022-10-22T04:32:52.735Z,36.00
2022-10-22T04:35:39.564Z,37.90
2022-10-22T04:38:25.909Z,37.80
2022-10-22T04:41:19.878Z,40.10
2022-10-22T04:44:11.024Z,38.50
2022-10-22T04:47:02.362Z,36.10
2022-10-22T04:49:48.913Z,37.70
2022-10-22T04:52:35.289Z,39.20
2022-10-22T04:55:21.944Z,37.80
2022-10-22T04:58:08.615Z,32.30
2022-10-22T05:00:55.198Z,36.70
2022-10-22T05:03:42.857Z,36.30
2022-10-22T05:06:32.521Z,39.10
2022-10-22T05:09:20.775Z,38.40
2022-10-22T05:12:07.410Z,37.60
2022-10-22T05:14:56.084Z,36.30
2022-10-22T05:17:43.034Z,37.30
2022-10-22T05:20:29.805Z,34.50
2022-10-22T05:23:16.294Z,34.20
2022-10-22T05:26:07.700Z,38.00
2022-10-22T05:28:54.569Z,34.30
2022-10-22T05:31:41.149Z,35.40
2022-10-22T05:34:27.683Z,37.20
2022-10-22T05:37:14.406Z,39.40
2022-10-22T05:40:12.489Z,38.00
2022-10-22T05:43:07.468Z,35.20
2022-10-22T05:45:54.232Z,39.20
2022-10-22T05:48:41.068Z,39.40
2022-10-22T05:51:30.491Z,37.50
2022-10-22T05:54:20.310Z,35.00
2022-10-22T05:57:08.758Z,33.00
2022-10-22T05:59:55.241Z,34.40
2022-10-22T06:02:42.060Z,39.60
2022-10-22T06:05:28.507Z,37.30
2022-10-22T06:08:18.315Z,38.80
2022-10-22T06:11:05.707Z,36.30
2022-10-22T06:13:52.122Z,33.90
2022-10-22T06:16:39.148Z,35.90
2022-10-22T06:19:26.559Z,34.40
2022-10-22T06:22:12.705Z,34.00
2022-10-22T06:24:58.934Z,37.80
2022-10-22T06:27:50.682Z,36.70
2022-10-22T06:30:41.714Z,39.00
2022-10-22T06:33:33.764Z,41.20
2022-10-22T06:36:23.315Z,36.50
2022-10-22T06:39:15.730Z,39.40
2022-10-22T06:42:02.047Z,40.20
2022-10-22T06:44:53.621Z,37.70
2022-10-22T06:47:43.478Z,40.40
2022-10-22T06:50:30.249Z,44.60
2022-10-22T06:53:16.711Z,40.60
2022-10-22T06:56:11.561Z,38.50
2022-10-22T06:58:58.384Z,39.50
2022-10-22T07:01:44.634Z,39.00
2022-10-22T07:04:30.886Z,39.30
2022-10-22T07:07:17.339Z,40.10
2022-10-22T07:10:04.535Z,46.20
2022-10-22T07:12:51.337Z,37.50
2022-10-22T07:15:37.555Z,40.40
2022-10-22T07:18:24.434Z,40.80
2022-10-22T07:21:36.390Z,38.50
2022-10-22T07:24:23.357Z,39.00
2022-10-22T07:27:11.719Z,38.90
2022-10-22T07:30:00.490Z,44.30
2022-10-22T07:32:46.566Z,40.00
2022-10-22T07:35:33.934Z,40.60
2022-10-22T07:38:20.255Z,39.00
2022-10-22T07:41:06.731Z,36.80
2022-10-22T07:43:53.965Z,37.50
2022-10-22T07:46:40.570Z,38.30
2022-10-22T07:49:26.974Z,37.70
2022-10-22T07:52:14.917Z,42.70
2022-10-22T07:55:01.182Z,37.40
2022-10-22T07:57:47.893Z,37.80
2022-10-22T08:00:34.556Z,36.90
2022-10-22T08:03:20.624Z,44.70
2022-10-22T08:06:12.550Z,36.70
2022-10-22T08:08:58.714Z,41.80
2022-10-22T08:11:45.781Z,40.30
2022-10-22T08:14:31.843Z,40.60
2022-10-22T08:17:18.125Z,40.10
2022-10-22T08:20:04.986Z,35.20
2022-10-22T08:22:51.602Z,35.90
2022-10-22T08:25:37.691Z,37.10
2022-10-22T08:28:24.140Z,34.80
2022-10-22T08:31:10.860Z,42.10
2022-10-22T08:33:57.388Z,41.90
2022-10-22T08:36:43.959Z,40.60
2022-10-22T08:39:30.380Z,44.10
2022-10-22T08:42:43.500Z,40.80
2022-10-22T08:45:46.852Z,44.40
2022-10-22T08:48:52.639Z,42.20
2022-10-22T08:51:40.003Z,44.10
2022-10-22T08:54:33.387Z,39.00
2022-10-22T08:57:51.483Z,42.60
2022-10-22T09:00:58.856Z,41.30
2022-10-22T09:03:54.104Z,37.90
2022-10-22T09:06:43.781Z,42.20
2022-10-22T09:09:41.883Z,32.50
2022-10-22T09:12:28.311Z,41.00
2022-10-22T09:15:16.719Z,39.40
2022-10-22T09:18:23.682Z,44.40
2022-10-22T09:21:38.098Z,45.90
2022-10-22T09:24:41.438Z,44.60
2022-10-22T09:27:31.139Z,37.80
2022-10-22T09:30:22.042Z,41.30
2022-10-22T09:33:25.367Z,41.30
2022-10-22T09:36:22.096Z,43.40
2022-10-22T09:39:46.703Z,43.20
2022-10-22T09:42:34.355Z,43.90
2022-10-22T09:45:24.789Z,51.30
2022-10-22T09:48:30.047Z,50.70
2022-10-22T09:51:48.041Z,40.50
2022-10-22T09:54:42.546Z,47.20
2022-10-22T09:57:29.466Z,46.50
2022-10-22T10:00:19.472Z,44.50
2022-10-22T10:03:06.336Z,43.80
2022-10-22T10:06:01.372Z,45.40
2022-10-22T10:08:51.411Z,43.50
2022-10-22T10:12:00.529Z,43.50
2022-10-22T10:14:58.195Z,43.50
2022-10-22T10:18:14.029Z,40.20
2022-10-22T10:21:37.117Z,37.90
2022-10-22T10:25:00.370Z,37.00
2022-10-22T10:28:11.257Z,35.30
2022-10-22T10:31:18.173Z,33.60
2022-10-22T10:34:45.059Z,37.10
2022-10-22T10:37:46.419Z,33.70
2022-10-22T10:41:07.747Z,35.20
2022-10-22T10:44:26.713Z,38.40
2022-10-22T10:47:37.976Z,36.10
2022-10-22T10:50:41.084Z,33.30
2022-10-22T10:53:58.342Z,33.70
2022-10-22T10:56:53.843Z,29.10
2022-10-22T10:59:58.537Z,30.90
2022-10-22T11:03:14.001Z,28.20
2022-10-22T11:06:07.596Z,27.70
2022-10-22T11:09:18.504Z,27.40
2022-10-22T11:12:23.062Z,25.70
2022-10-22T11:15:32.845Z,23.90
2022-10-22T11:18:35.218Z,23.20
2022-10-22T11:21:34.463Z,25.40
2022-10-22T11:24:50.133Z,24.00
2022-10-22T11:27:52.933Z,22.80
2022-10-22T11:30:42.638Z,22.10
2022-10-22T11:33:46.476Z,22.80
2022-10-22T11:36:34.053Z,26.00
2022-10-22T11:39:48.407Z,26.70
2022-10-22T11:42:45.201Z,27.50
2022-10-22T11:45:42.932Z,26.60
2022-10-22T11:48:37.545Z,23.70
2022-10-22T11:51:39.785Z,25.70
2022-10-22T11:54:42.283Z,27.10
2022-10-22T11:57:38.553Z,29.70
2022-10-22T12:00:48.243Z,29.90
2022-10-22T12:03:34.802Z,25.00
2022-10-22T12:06:26.971Z,32.90
2022-10-22T12:09:13.473Z,33.50
2022-10-22T12:12:13.810Z,28.60
2022-10-22T12:15:00.519Z,28.00
2022-10-22T12:17:46.840Z,31.90
2022-10-22T12:20:33.249Z,31.70
2022-10-22T12:23:26.418Z,36.10
2022-10-22T12:26:34.135Z,31.30
2022-10-22T12:29:23.154Z,36.50
2022-10-22T12:32:14.242Z,34.50
2022-10-22T12:35:07.265Z,39.50
2022-10-22T12:38:01.153Z,43.20
2022-10-22T12:40:53.558Z,44.10
2022-10-22T12:43:40.054Z,41.20
2022-10-22T12:46:29.887Z,46.10
2022-10-22T12:49:27.793Z,38.60
2022-10-22T12:52:22.320Z,45.80
2022-10-22T12:55:10.032Z,41.50
2022-10-22T12:57:56.737Z,52.60
2022-10-22T13:00:46.619Z,53.70
2022-10-22T13:03:40.018Z,49.20
2022-10-22T13:06:28.032Z,51.10
2022-10-22T13:09:27.061Z,47.40
2022-10-22T13:12:16.202Z,51.40
2022-10-22T13:15:34.582Z,47.00
2022-10-22T13:18:24.648Z,60.90
2022-10-22T13:21:37.687Z,52.20
2022-10-22T13:24:24.483Z,47.40
2022-10-22T13:27:13.279Z,53.30
2022-10-22T13:30:08.959Z,48.80
2022-10-22T13:33:22.278Z,56.10
2022-10-22T13:36:13.820Z,56.00
2022-10-22T13:38:59.860Z,53.30
2022-10-22T13:41:46.366Z,51.20
2022-10-22T13:44:32.791Z,53.20
2022-10-22T13:47:29.810Z,52.00
2022-10-22T13:50:19.726Z,56.60
2022-10-22T13:53:18.771Z,51.90
2022-10-22T13:56:05.431Z,49.20
2022-10-22T13:58:51.753Z,55.30
2022-10-22T14:01:38.852Z,50.10
2022-10-22T14:04:25.863Z,45.50
2022-10-22T14:07:16.159Z,40.50
2022-10-22T14:10:14.468Z,46.20
2022-10-22T14:13:00.818Z,44.70
2022-10-22T14:15:50.162Z,44.70
2022-10-22T14:18:36.760Z,45.00
2022-10-22T14:21:23.226Z,45.20
2022-10-22T14:24:13.073Z,47.60
2022-10-22T14:26:59.716Z,41.20
2022-10-22T14:29:46.262Z,47.00
2022-10-22T14:32:32.967Z,45.40
2022-10-22T14:35:21.874Z,43.00
2022-10-22T14:38:09.335Z,40.20
2022-10-22T14:40:56.850Z,40.40
2022-10-22T14:43:43.451Z,44.50
2022-10-22T14:46:29.940Z,39.80
2022-10-22T14:49:16.266Z,44.70
2022-10-22T14:52:02.564Z,44.90
2022-10-22T14:54:49.305Z,48.30
2022-10-22T14:57:35.719Z,39.70
2022-10-22T15:00:22.124Z,44.60
2022-10-22T15:03:09.156Z,44.70
2022-10-22T15:05:55.949Z,37.90
2022-10-22T15:08:43.879Z,40.10
2022-10-22T15:11:32.693Z,42.50
2022-10-22T15:14:19.416Z,42.90
2022-10-22T15:17:08.795Z,37.80
2022-10-22T15:19:55.894Z,45.00
2022-10-22T15:22:43.040Z,45.00
2022-10-22T15:25:29.971Z,42.00
2022-10-22T15:28:16.194Z,37.00
2022-10-22T15:31:03.319Z,38.20
2022-10-22T15:33:49.347Z,38.00
2022-10-22T15:36:36.020Z,40.70
2022-10-22T15:39:23.713Z,35.30
2022-10-22T15:42:10.634Z,29.00
2022-10-22T15:44:58.723Z,38.40
2022-10-22T15:47:47.707Z,37.60
2022-10-22T15:50:38.834Z,35.20
2022-10-22T15:53:25.227Z,35.60
2022-10-22T15:56:11.940Z,38.00
2022-10-22T15:59:04.942Z,36.00
2022-10-22T16:01:51.620Z,37.60
2022-10-22T16:04:38.996Z,37.70
2022-10-22T16:07:26.435Z,38.70
2022-10-22T16:10:13.467Z,36.40
2022-10-22T16:12:59.694Z,39.40
2022-10-22T16:15:46.558Z,34.90
2022-10-22T16:18:32.532Z,42.50
2022-10-22T16:21:21.516Z,37.20
2022-10-22T16:24:09.107Z,34.20
2022-10-22T16:26:55.149Z,34.60
2022-10-22T16:29:41.464Z,42.80
2022-10-22T16:32:27.759Z,41.90
2022-10-22T16:35:14.013Z,39.10
2022-10-22T16:38:00.448Z,38.30
2022-10-22T16:40:46.996Z,32.50
2022-10-22T16:43:33.543Z,37.00
2022-10-22T16:46:22.028Z,36.90
2022-10-22T16:49:08.410Z,35.60
2022-10-22T16:51:54.667Z,33.60
2022-10-22T16:54:40.863Z,36.90
2022-10-22T16:57:28.449Z,34.00
2022-10-22T17:00:15.210Z,37.80
2022-10-22T17:03:01.308Z,33.80
2022-10-22T17:05:48.317Z,37.90
2022-10-22T17:08:36.925Z,31.10
2022-10-22T17:11:24.690Z,32.70
2022-10-22T17:14:11.227Z,38.30
2022-10-22T17:16:58.030Z,40.30
2022-10-22T17:19:44.698Z,39.80
2022-10-22T17:22:31.814Z,31.40
2022-10-22T17:25:44.080Z,35.60
2022-10-22T17:28:30.533Z,30.10
2022-10-22T17:31:27.728Z,27.00
2022-10-22T17:34:17.233Z,29.90
2022-10-22T17:37:03.915Z,27.30
2022-10-22T17:39:50.326Z,27.80
2022-10-22T17:42:40.124Z,29.50
2022-10-22T17:45:26.913Z,27.00
2022-10-22T17:48:13.317Z,28.90
2022-10-22T17:50:59.772Z,26.10
2022-10-22T17:53:46.674Z,25.60
2022-10-22T17:56:33.139Z,26.20
2022-10-22T17:59:19.827Z,27.90
2022-10-22T18:02:09.160Z,24.40
2022-10-22T18:04:55.300Z,24.50
2022-10-22T18:07:41.530Z,23.10
2022-10-22T18:10:28.711Z,27.30
2022-10-22T18:13:14.996Z,24.70
2022-10-22T18:16:02.220Z,23.60
2022-10-22T18:18:52.643Z,23.10
2022-10-22T18:21:38.910Z,23.90
2022-10-22T18:24:25.159Z,22.50
2022-10-22T18:27:11.392Z,23.00
2022-10-22T18:29:57.980Z,24.00
2022-10-22T18:32:44.589Z,23.70
2022-10-22T18:35:32.350Z,24.70
2022-10-22T18:38:21.335Z,22.80
2022-10-22T18:41:13.006Z,23.00
2022-10-22T18:44:06.556Z,25.00
2022-10-22T18:46:53.047Z,24.20
2022-10-22T18:49:39.567Z,23.00
2022-10-22T18:52:25.777Z,23.70
2022-10-22T18:55:12.184Z,22.80
2022-10-22T18:57:58.519Z,17.50
2022-10-22T19:00:45.340Z,20.10
2022-10-22T19:03:32.476Z,22.00
2022-10-22T19:06:34.338Z,21.00
2022-10-22T19:09:25.796Z,20.50
2022-10-22T19:12:14.549Z,19.70
2022-10-22T19:15:01.216Z,19.90
2022-10-22T19:17:47.780Z,21.20
2022-10-22T19:20:35.664Z,17.00
2022-10-22T19:23:22.260Z,21.70
2022-10-22T19:26:13.202Z,19.10
2022-10-22T19:29:00.157Z,18.70
2022-10-22T19:31:47.126Z,17.80
2022-10-22T19:34:33.488Z,17.20
2022-10-22T19:37:21.995Z,18.20
2022-10-22T19:40:09.789Z,18.80
2022-10-22T19:42:56.133Z,20.60
2022-10-22T19:45:42.785Z,19.20
2022-10-22T19:48:29.460Z,19.00
2022-10-22T19:51:22.662Z,18.30
2022-10-22T19:54:17.845Z,18.00
2022-10-22T19:57:04.170Z,18.90
2022-10-22T19:59:50.628Z,17.90
2022-10-22T20:02:37.808Z,18.60
2022-10-22T20:05:23.964Z,16.30
2022-10-22T20:08:10.891Z,17.70
2022-10-22T20:10:57.806Z,17.60
2022-10-22T20:13:46.766Z,16.10
2022-10-22T20:16:36.421Z,18.40
2022-10-22T20:19:25.542Z,17.70
2022-10-22T20:22:14.982Z,13.60
2022-10-22T20:25:05.224Z,18.10
2022-10-22T20:27:51.763Z,14.70
2022-10-22T20:30:45.464Z,17.10
2022-10-22T20:33:33.957Z,16.90
2022-10-22T20:36:23.073Z,15.90
2022-10-22T20:39:13.914Z,19.30
2022-10-22T20:42:00.376Z,17.80
2022-10-22T20:44:47.004Z,19.80
2022-10-22T20:47:44.488Z,22.10
2022-10-22T20:50:37.772Z,22.10
2022-10-22T20:53:24.529Z,22.40
2022-10-22T20:56:13.093Z,26.50
2022-10-22T20:59:07.581Z,27.20
2022-10-22T21:01:54.172Z,31.40
2022-10-22T21:04:44.064Z,27.40
2022-10-22T21:07:34.180Z,30.60
2022-10-22T21:10:20.538Z,32.10
2022-10-22T21:13:07.522Z,37.10
2022-10-22T21:15:54.337Z,31.60
2022-10-22T21:18:40.737Z,27.30
2022-10-22T21:21:27.286Z,30.70
2022-10-22T21:24:13.745Z,31.00
2022-10-22T21:27:03.424Z,30.90
2022-10-22T21:29:49.631Z,32.20
2022-10-22T21:32:36.086Z,30.50
2022-10-22T21:35:24.100Z,26.80
2022-10-22T21:38:10.256Z,22.50
2022-10-22T21:40:56.848Z,27.80
2022-10-22T21:43:45.100Z,28.40
2022-10-22T21:46:31.940Z,29.00
2022-10-22T21:49:18.463Z,28.40
2022-10-22T21:52:06.490Z,26.20
2022-10-22T21:54:53.438Z,25.70
2022-10-22T21:57:40.269Z,23.20
2022-10-22T22:00:26.609Z,25.30
2022-10-22T22:03:13.021Z,21.90
2022-10-22T22:06:06.262Z,22.20
2022-10-22T22:08:53.913Z,23.10
2022-10-22T22:11:40.520Z,22.70
2022-10-22T22:14:26.718Z,21.60
2022-10-22T22:17:17.983Z,21.50
2022-10-22T22:20:05.540Z,23.60
2022-10-22T22:22:52.728Z,21.60
2022-10-22T22:25:39.156Z,21.40
2022-10-22T22:28:26.323Z,22.00
2022-10-22T22:31:17.553Z,22.30
2022-10-22T22:34:12.222Z,23.70
2022-10-22T22:36:58.580Z,21.30
2022-10-22T22:39:44.855Z,22.20
2022-10-22T22:42:31.267Z,19.50
2022-10-22T22:45:17.748Z,19.90
2022-10-22T22:48:04.147Z,22.30
2022-10-22T22:50:50.633Z,19.80
2022-10-22T22:53:36.580Z,19.30
2022-10-22T22:56:27.117Z,22.30
2022-10-22T22:59:13.757Z,21.10
2022-10-22T23:02:00.371Z,22.20
2022-10-22T23:04:47.011Z,20.00
2022-10-22T23:07:33.454Z,20.90
2022-10-22T23:10:22.161Z,22.10
2022-10-22T23:13:08.472Z,20.10
2022-10-22T23:15:55.051Z,20.60
2022-10-22T23:18:42.592Z,18.90
2022-10-22T23:21:34.837Z,19.80
2022-10-22T23:24:26.749Z,23.60
2022-10-22T23:27:13.112Z,19.90
2022-10-22T23:29:59.691Z,21.90
2022-10-22T23:32:46.215Z,22.10
2022-10-22T23:35:32.613Z,24.10
2022-10-22T23:38:19.000Z,18.20
2022-10-22T23:41:06.475Z,20.70
2022-10-22T23:43:52.416Z,17.30
2022-10-22T23:46:39.229Z,18.60
2022-10-22T23:49:25.326Z,19.40
2022-10-22T23:52:11.903Z,20.20
2022-10-22T23:54:58.611Z,23.70
2022-10-22T23:57:45.359Z,21.30
